createdAt,value
2023-05-10T00:02:42.040Z,4.03
2023-05-10T00:05:45.681Z,3.00
2023-05-10T00:08:50.547Z,2.90
2023-05-10T00:11:54.066Z,6.43
2023-05-10T00:14:57.529Z,7.03
2023-05-10T00:18:01.100Z,4.17
2023-05-10T00:21:04.776Z,5.40
2023-05-10T00:24:09.842Z,5.50
2023-05-10T00:27:13.355Z,4.83
2023-05-10T00:30:17.334Z,9.60
2023-05-10T00:33:20.982Z,4.23
2023-05-10T00:36:24.456Z,5.13
2023-05-10T00:39:29.696Z,4.07
2023-05-10T00:42:33.214Z,3.40
2023-05-10T00:45:41.163Z,6.20
2023-05-10T00:48:46.906Z,7.90
2023-05-10T00:51:50.908Z,4.50
2023-05-10T00:54:56.827Z,5.23
2023-05-10T00:58:00.385Z,4.43
2023-05-10T01:01:05.076Z,3.37
2023-05-10T01:04:09.777Z,2.53
2023-05-10T01:07:13.300Z,4.83
2023-05-10T01:10:18.588Z,2.33
2023-05-10T01:13:34.649Z,2.90
2023-05-10T01:16:41.985Z,2.60
2023-05-10T01:19:45.742Z,6.03
2023-05-10T01:23:37.567Z,2.43
2023-05-10T01:27:30.035Z,3.50
2023-05-10T01:31:31.047Z,4.13
2023-05-10T01:34:44.817Z,2.83
2023-05-10T01:38:00.664Z,5.03
2023-05-10T01:41:16.762Z,4.87
2023-05-10T01:44:30.466Z,3.17
2023-05-10T01:47:41.952Z,5.80
2023-05-10T01:50:50.080Z,3.73
2023-05-10T01:54:01.184Z,3.60
2023-05-10T01:57:10.170Z,2.40
2023-05-10T02:00:17.373Z,3.53
2023-05-10T02:03:26.310Z,2.53
2023-05-10T02:06:33.549Z,4.03
2023-05-10T02:09:39.290Z,2.97
2023-05-10T02:12:48.063Z,4.67
2023-05-10T02:15:55.474Z,5.00
2023-05-10T02:19:03.651Z,3.83
2023-05-10T02:22:11.106Z,2.83
2023-05-10T02:25:19.346Z,3.23
2023-05-10T02:28:26.061Z,4.40
2023-05-10T02:31:30.066Z,7.47
2023-05-10T02:34:34.498Z,4.43
2023-05-10T02:37:40.756Z,3.60
2023-05-10T02:40:45.420Z,3.63
2023-05-10T02:43:52.882Z,4.20
2023-05-10T02:46:57.118Z,3.30
2023-05-10T02:50:01.224Z,2.97
2023-05-10T02:53:13.856Z,3.87
2023-05-10T02:56:27.132Z,6.17
2023-05-10T02:59:30.656Z,3.43
2023-05-10T03:02:34.567Z,3.23
2023-05-10T03:05:38.074Z,3.63
2023-05-10T03:08:43.026Z,4.93
2023-05-10T03:12:03.125Z,3.60
2023-05-10T03:15:15.943Z,4.07
2023-05-10T03:18:29.651Z,3.07
2023-05-10T03:21:34.977Z,4.47
2023-05-10T03:24:43.443Z,3.77
2023-05-10T03:27:48.102Z,4.13
2023-05-10T03:30:54.696Z,3.03
2023-05-10T03:33:58.177Z,2.93
2023-05-10T03:37:01.807Z,5.00
2023-05-10T03:40:08.708Z,3.40
2023-05-10T03:43:12.206Z,3.57
2023-05-10T03:46:15.771Z,4.07
2023-05-10T03:49:19.293Z,3.77
2023-05-10T03:52:23.055Z,3.83
2023-05-10T03:55:28.062Z,16.67
2023-05-10T03:58:31.636Z,5.80
2023-05-10T04:01:35.365Z,8.13
2023-05-10T04:04:38.923Z,7.40
2023-05-10T04:07:42.568Z,4.03
2023-05-10T04:10:47.525Z,3.97
2023-05-10T04:13:51.070Z,4.03
2023-05-10T04:16:54.592Z,5.00
2023-05-10T04:19:58.875Z,4.83
2023-05-10T04:23:02.441Z,3.97
2023-05-10T04:26:07.979Z,7.80
2023-05-10T04:29:11.415Z,4.87
2023-05-10T04:32:14.891Z,5.73
2023-05-10T04:35:18.554Z,5.57
2023-05-10T04:38:22.172Z,4.97
2023-05-10T04:41:27.260Z,4.90
2023-05-10T04:44:30.909Z,4.23
2023-05-10T04:47:34.812Z,6.97
2023-05-10T04:50:38.528Z,4.33
2023-05-10T04:53:46.434Z,5.43
2023-05-10T04:56:56.097Z,7.40
2023-05-10T04:59:59.630Z,8.70
2023-05-10T05:03:03.237Z,6.20
2023-05-10T05:06:07.554Z,6.47
2023-05-10T05:09:11.187Z,4.07
2023-05-10T05:12:16.108Z,7.80
2023-05-10T05:15:20.019Z,5.40
2023-05-10T05:18:23.593Z,6.60
2023-05-10T05:21:28.188Z,6.67
2023-05-10T05:24:31.652Z,5.93
2023-05-10T05:27:40.554Z,7.07
2023-05-10T05:30:44.024Z,7.97
2023-05-10T05:33:47.573Z,7.97
2023-05-10T05:36:51.073Z,6.90
2023-05-10T05:39:55.993Z,6.87
2023-05-10T05:43:00.897Z,8.03
2023-05-10T05:46:04.551Z,8.50
2023-05-10T05:49:08.132Z,6.80
2023-05-10T05:52:11.633Z,9.53
2023-05-10T05:55:15.516Z,8.30
2023-05-10T05:58:20.667Z,6.83
2023-05-10T06:04:46.493Z,7.20
2023-05-10T06:07:50.004Z,7.23
2023-05-10T06:10:53.592Z,7.13
2023-05-10T06:13:58.659Z,7.87
2023-05-10T06:17:05.113Z,7.00
2023-05-10T06:20:10.703Z,9.57
2023-05-10T06:23:14.231Z,7.90
2023-05-10T06:26:17.771Z,6.90
2023-05-10T06:29:23.020Z,8.03
2023-05-10T06:32:27.883Z,7.63
2023-05-10T06:35:32.414Z,8.87
2023-05-10T06:38:36.044Z,10.40
2023-05-10T06:41:39.610Z,8.67
2023-05-10T06:44:44.541Z,10.40
2023-05-10T06:47:48.181Z,11.27
2023-05-10T06:50:51.895Z,9.93
2023-05-10T06:53:55.429Z,10.20
2023-05-10T06:56:58.930Z,10.07
2023-05-10T07:00:06.263Z,11.17
2023-05-10T07:03:09.928Z,12.17
2023-05-10T07:06:29.340Z,11.57
2023-05-10T07:09:36.638Z,10.80
2023-05-10T07:12:41.130Z,11.50
2023-05-10T07:15:46.089Z,10.20
2023-05-10T07:18:51.437Z,10.67
2023-05-10T07:21:54.920Z,12.30
2023-05-10T07:24:58.500Z,14.53
2023-05-10T07:28:02.137Z,13.13
2023-05-10T07:31:07.129Z,11.83
2023-05-10T07:34:11.176Z,12.03
2023-05-10T07:37:14.797Z,12.33
2023-05-10T07:40:19.694Z,13.43
2023-05-10T07:43:23.240Z,14.33
2023-05-10T07:46:28.470Z,13.93
2023-05-10T07:49:32.080Z,15.77
2023-05-10T07:52:35.656Z,13.10
2023-05-10T07:55:39.223Z,13.73
2023-05-10T07:58:42.787Z,17.27
2023-05-10T08:01:47.974Z,13.70
2023-05-10T08:04:51.711Z,14.27
2023-05-10T08:07:55.442Z,13.37
2023-05-10T08:10:59.018Z,13.37
2023-05-10T08:14:02.707Z,12.27
2023-05-10T08:17:07.691Z,13.13
2023-05-10T08:20:13.817Z,17.33
2023-05-10T08:23:17.438Z,14.33
2023-05-10T08:26:21.960Z,13.10
2023-05-10T08:29:26.727Z,14.67
2023-05-10T08:32:33.737Z,10.97
2023-05-10T08:35:37.634Z,11.77
2023-05-10T08:38:41.198Z,8.57
2023-05-10T08:41:49.038Z,6.63
2023-05-10T08:44:54.315Z,7.93
2023-05-10T08:48:00.446Z,6.27
2023-05-10T08:51:06.613Z,4.40
2023-05-10T08:54:10.509Z,4.63
2023-05-10T08:57:14.045Z,3.90
2023-05-10T09:00:20.248Z,4.00
2023-05-10T09:03:25.249Z,4.43
2023-05-10T09:06:29.760Z,4.20
2023-05-10T09:09:34.250Z,5.93
2023-05-10T09:12:38.517Z,5.43
2023-05-10T09:15:42.448Z,5.57
2023-05-10T09:18:47.415Z,3.87
2023-05-10T09:21:51.723Z,5.80
2023-05-10T09:25:08.209Z,5.83
2023-05-10T09:28:13.319Z,4.07
2023-05-10T09:31:16.921Z,1.87
2023-05-10T09:34:30.337Z,2.97
2023-05-10T09:37:33.986Z,2.93
2023-05-10T09:40:37.707Z,3.73
2023-05-10T09:43:42.356Z,2.47
2023-05-10T09:46:51.156Z,2.07
2023-05-10T09:49:59.309Z,3.07
2023-05-10T09:53:05.263Z,1.37
2023-05-10T09:56:08.862Z,2.27
2023-05-10T09:59:14.470Z,3.07
2023-05-10T10:02:18.705Z,2.43
2023-05-10T10:05:29.940Z,5.80
2023-05-10T10:08:33.801Z,3.10
2023-05-10T10:11:39.679Z,3.53
2023-05-10T10:14:43.812Z,3.50
2023-05-10T10:17:48.821Z,5.23
2023-05-10T10:20:56.248Z,4.60
2023-05-10T10:23:59.827Z,4.30
2023-05-10T10:27:22.172Z,4.87
2023-05-10T10:30:37.381Z,5.00
2023-05-10T10:34:01.494Z,5.90
2023-05-10T10:37:08.883Z,5.37
2023-05-10T10:40:33.600Z,6.27
2023-05-10T10:43:38.233Z,9.13
2023-05-10T10:47:02.559Z,3.83
2023-05-10T10:50:09.068Z,3.53
2023-05-10T10:53:15.122Z,3.40
2023-05-10T10:56:25.311Z,6.90
2023-05-10T10:59:29.990Z,2.77
2023-05-10T11:02:46.974Z,3.40
2023-05-10T11:05:53.152Z,3.37
2023-05-10T11:08:58.222Z,2.77
2023-05-10T11:12:02.002Z,3.47
2023-05-10T11:15:11.168Z,2.93
2023-05-10T11:18:22.954Z,3.77
2023-05-10T11:21:27.132Z,3.23
2023-05-10T11:24:32.392Z,3.10
2023-05-10T11:27:39.946Z,3.73
2023-05-10T11:30:46.120Z,3.63
2023-05-10T11:33:51.903Z,4.87
2023-05-10T11:36:57.390Z,3.93
2023-05-10T11:40:02.395Z,3.10
2023-05-10T11:43:07.286Z,3.03
2023-05-10T11:46:14.667Z,2.93
2023-05-10T11:49:18.451Z,3.50
2023-05-10T11:52:22.121Z,3.27
2023-05-10T11:55:27.225Z,3.07
2023-05-10T11:58:30.772Z,2.90
2023-05-10T12:01:34.880Z,3.97
2023-05-10T12:04:38.833Z,3.37
2023-05-10T12:07:42.382Z,2.77
2023-05-10T12:10:47.372Z,2.40
2023-05-10T12:13:51.035Z,2.43
2023-05-10T12:16:54.670Z,2.43
2023-05-10T12:20:14.994Z,0.93
2023-05-10T12:23:18.739Z,0.83
2023-05-10T12:26:27.545Z,0.80
2023-05-10T12:29:33.148Z,0.90
2023-05-10T12:32:43.852Z,4.13
2023-05-10T12:35:49.468Z,3.17
2023-05-10T12:38:53.697Z,1.73
2023-05-10T12:41:58.901Z,1.37
2023-05-10T12:45:02.409Z,3.37
2023-05-10T12:48:06.161Z,1.80
2023-05-10T12:51:12.742Z,1.50
2023-05-10T12:54:16.359Z,0.50
2023-05-10T12:57:23.288Z,0.80
2023-05-10T13:00:27.326Z,1.63
2023-05-10T13:03:31.556Z,1.37
2023-05-10T13:06:36.080Z,0.87
2023-05-10T13:09:39.524Z,0.80
2023-05-10T13:12:44.504Z,1.53
2023-05-10T13:15:48.067Z,2.07
2023-05-10T13:18:51.804Z,2.87
2023-05-10T13:21:55.808Z,2.57
2023-05-10T13:24:59.365Z,3.17
2023-05-10T13:28:04.665Z,2.73
2023-05-10T13:31:08.301Z,3.07
2023-05-10T13:34:12.043Z,3.90
2023-05-10T13:37:15.675Z,5.27
2023-05-10T13:40:19.561Z,6.00
2023-05-10T13:43:24.509Z,5.10
2023-05-10T13:46:28.194Z,4.97
2023-05-10T13:49:31.747Z,5.57
2023-05-10T13:52:35.416Z,5.57
2023-05-10T13:55:38.966Z,5.13
2023-05-10T13:58:44.025Z,6.43
2023-05-10T14:01:47.567Z,7.03
2023-05-10T14:04:51.128Z,5.23
2023-05-10T14:07:54.918Z,5.60
2023-05-10T14:10:58.493Z,5.83
2023-05-10T14:14:03.764Z,5.10
2023-05-10T14:17:08.256Z,5.47
2023-05-10T14:20:13.695Z,6.17
2023-05-10T14:23:17.290Z,6.77
2023-05-10T14:26:21.776Z,4.67
2023-05-10T14:29:26.667Z,5.37
2023-05-10T14:32:30.198Z,4.50
2023-05-10T14:35:33.911Z,4.27
2023-05-10T14:38:37.417Z,3.43
2023-05-10T14:41:42.002Z,3.50
2023-05-10T14:44:46.923Z,3.47
2023-05-10T14:47:51.109Z,2.60
2023-05-10T14:50:54.668Z,3.30
2023-05-10T14:53:58.362Z,2.83
2023-05-10T14:57:02.427Z,2.73
2023-05-10T15:00:09.224Z,2.17
2023-05-10T15:03:13.110Z,2.13
2023-05-10T15:06:18.130Z,1.60
2023-05-10T15:09:21.672Z,1.87
2023-05-10T15:12:25.169Z,2.00
2023-05-10T15:15:32.107Z,2.73
2023-05-10T15:18:35.706Z,1.80
2023-05-10T15:21:39.907Z,1.77
2023-05-10T15:24:43.646Z,1.83
2023-05-10T15:27:47.103Z,2.43
2023-05-10T15:30:52.258Z,1.73
2023-05-10T15:34:00.658Z,1.67
2023-05-10T15:37:04.327Z,1.70
2023-05-10T15:40:09.326Z,1.40
2023-05-10T15:43:12.875Z,1.80
2023-05-10T15:46:17.899Z,1.97
2023-05-10T15:49:21.531Z,1.90
2023-05-10T15:52:25.256Z,1.10
2023-05-10T15:55:29.006Z,1.43
2023-05-10T15:58:32.886Z,4.33
2023-05-10T16:01:37.981Z,1.20
2023-05-10T16:04:41.511Z,2.63
2023-05-10T16:07:45.056Z,1.60
2023-05-10T16:10:48.721Z,4.10
2023-05-10T16:13:52.848Z,1.53
2023-05-10T16:16:57.797Z,1.60
2023-05-10T16:20:01.867Z,1.50
2023-05-10T16:23:07.604Z,1.63
2023-05-10T16:26:11.122Z,2.03
2023-05-10T16:29:14.625Z,1.70
2023-05-10T16:32:19.490Z,2.17
2023-05-10T16:35:23.704Z,1.93
2023-05-10T16:38:27.352Z,1.80
2023-05-10T16:41:33.688Z,2.00
2023-05-10T16:44:37.170Z,3.17
2023-05-10T16:47:43.111Z,2.47
2023-05-10T16:50:46.864Z,3.60
2023-05-10T16:53:50.481Z,2.67
2023-05-10T16:56:54.503Z,2.80
2023-05-10T16:59:58.057Z,4.87
2023-05-10T17:03:03.020Z,3.00
2023-05-10T17:06:07.681Z,3.20
2023-05-10T17:09:12.026Z,3.17
2023-05-10T17:12:15.491Z,3.27
2023-05-10T17:15:20.985Z,4.03
2023-05-10T17:18:26.752Z,3.17
2023-05-10T17:21:33.540Z,2.27
2023-05-10T17:24:37.019Z,2.73
2023-05-10T17:27:40.730Z,2.43
2023-05-10T17:30:44.568Z,2.60
2023-05-10T17:33:49.435Z,2.73
2023-05-10T17:36:53.001Z,2.67
2023-05-10T17:39:56.563Z,2.23
2023-05-10T17:43:00.011Z,2.87
2023-05-10T17:46:03.795Z,3.93
2023-05-10T17:49:09.421Z,3.77
2023-05-10T17:52:12.969Z,2.90
2023-05-10T17:55:16.793Z,2.43
2023-05-10T17:58:20.458Z,2.50
2023-05-10T18:01:24.026Z,4.27
2023-05-10T18:04:29.291Z,2.83
2023-05-10T18:07:32.877Z,3.93
2023-05-10T18:10:39.996Z,3.43
2023-05-10T18:13:45.106Z,3.40
2023-05-10T18:16:48.870Z,2.97
2023-05-10T18:19:55.171Z,2.97
2023-05-10T18:22:58.852Z,3.87
2023-05-10T18:26:03.447Z,4.60
2023-05-10T18:29:07.521Z,2.87
2023-05-10T18:32:11.232Z,3.73
2023-05-10T18:35:16.398Z,4.27
2023-05-10T18:38:20.533Z,2.67
2023-05-10T18:41:26.819Z,3.53
2023-05-10T18:44:30.472Z,3.33
2023-05-10T18:47:33.961Z,3.03
2023-05-10T18:50:38.830Z,2.53
2023-05-10T18:53:42.539Z,4.03
2023-05-10T18:56:46.365Z,3.17
2023-05-10T18:59:50.963Z,3.90
2023-05-10T19:02:54.721Z,2.97
2023-05-10T19:06:00.434Z,2.93
2023-05-10T19:09:04.251Z,3.83
2023-05-10T19:12:07.905Z,2.63
2023-05-10T19:15:28.134Z,3.17
2023-05-10T19:18:31.746Z,2.33
2023-05-10T19:21:37.750Z,3.60
2023-05-10T19:24:41.833Z,2.50
2023-05-10T19:27:45.338Z,3.73
2023-05-10T19:30:49.710Z,4.03
2023-05-10T19:33:53.713Z,3.53
2023-05-10T19:36:58.908Z,3.50
2023-05-10T19:40:02.775Z,3.37
2023-05-10T19:43:06.625Z,2.67
2023-05-10T19:46:10.302Z,3.20
2023-05-10T19:49:14.223Z,5.53
2023-05-10T19:52:20.604Z,5.97
2023-05-10T19:55:30.068Z,3.97
2023-05-10T19:58:33.891Z,5.03
2023-05-10T20:01:37.437Z,4.70
2023-05-10T20:04:41.000Z,4.37
2023-05-10T20:07:46.409Z,3.70
2023-05-10T20:10:50.819Z,4.03
2023-05-10T20:13:54.386Z,4.00
2023-05-10T20:16:58.008Z,3.17
2023-05-10T20:20:01.634Z,3.20
2023-05-10T20:23:06.546Z,3.20
2023-05-10T20:26:11.481Z,4.13
2023-05-10T20:29:14.961Z,4.50
2023-05-10T20:32:18.409Z,4.77
2023-05-10T20:35:22.020Z,6.13
2023-05-10T20:38:26.864Z,2.90
2023-05-10T20:41:30.350Z,4.23
2023-05-10T20:44:33.884Z,3.73
2023-05-10T20:47:37.492Z,4.00
2023-05-10T20:50:41.012Z,3.73
2023-05-10T20:53:46.049Z,5.17
2023-05-10T20:56:49.630Z,5.27
2023-05-10T20:59:54.669Z,6.90
2023-05-10T21:02:58.174Z,4.07
2023-05-10T21:06:01.782Z,5.23
2023-05-10T21:09:07.188Z,6.13
2023-05-10T21:12:11.349Z,5.80
2023-05-10T21:15:33.686Z,4.73
2023-05-10T21:18:37.282Z,5.60
2023-05-10T21:21:40.804Z,5.33
2023-05-10T21:24:45.694Z,6.17
2023-05-10T21:27:49.176Z,5.43
2023-05-10T21:30:53.089Z,5.53
2023-05-10T21:33:56.974Z,7.53
2023-05-10T21:37:00.688Z,7.03
2023-05-10T21:40:06.900Z,7.80
2023-05-10T21:43:11.361Z,7.03
2023-05-10T21:46:15.377Z,5.47
2023-05-10T21:49:18.973Z,6.63
2023-05-10T21:52:22.464Z,5.47
2023-05-10T21:55:27.621Z,4.67
2023-05-10T21:58:31.108Z,8.03
2023-05-10T22:01:34.764Z,8.77
2023-05-10T22:04:38.355Z,5.77
2023-05-10T22:07:41.983Z,9.10
2023-05-10T22:10:46.884Z,8.13
2023-05-10T22:13:50.483Z,7.63
2023-05-10T22:16:54.029Z,7.90
2023-05-10T22:19:57.685Z,7.97
2023-05-10T22:23:01.242Z,8.17
2023-05-10T22:26:06.369Z,9.43
2023-05-10T22:29:09.910Z,7.17
2023-05-10T22:32:13.432Z,9.63
2023-05-10T22:35:17.076Z,8.20
2023-05-10T22:38:20.583Z,9.67
2023-05-10T22:41:25.496Z,8.07
2023-05-10T22:44:28.960Z,7.97
2023-05-10T22:47:33.794Z,10.27
2023-05-10T22:50:37.868Z,11.07
2023-05-10T22:53:41.381Z,8.17
2023-05-10T22:56:46.434Z,8.53
2023-05-10T22:59:49.987Z,7.73
2023-05-10T23:02:53.633Z,8.17
2023-05-10T23:05:57.104Z,8.00
2023-05-10T23:09:00.801Z,8.47
2023-05-10T23:12:05.874Z,8.40
2023-05-10T23:15:10.804Z,8.93
2023-05-10T23:18:14.266Z,8.07
2023-05-10T23:21:17.971Z,9.20
2023-05-10T23:24:21.531Z,6.97
2023-05-10T23:27:30.556Z,9.63
2023-05-10T23:30:34.015Z,9.83
2023-05-10T23:33:37.581Z,10.47
2023-05-10T23:36:41.120Z,9.93
2023-05-10T23:39:44.798Z,9.73
2023-05-10T23:42:49.664Z,10.10
2023-05-10T23:45:57.810Z,10.50
2023-05-10T23:49:01.529Z,9.53
2023-05-10T23:52:05.013Z,9.10
2023-05-10T23:55:10.393Z,12.30
2023-05-10T23:58:16.121Z,9.83
